Latest Weather Observations for Lucas Heights

IDN60901

Issued at 11:22 pm EDT Monday 26 January 2015 (issued every 10 minutes, with the page automatically refreshed every 10 minutes)

About weather observations | Map of Sydney area stations | Latest observations for Sydney area | Other Formats
Station Details ID: 066023 Name: LUCAS HEIGHTS AWS Lat: -34.05 Lon: 150.98 Height: 140.0 m
Data from the previous 72 hours. | See also: Recent months for locations in New South Wales
Date/Time
EDT
Tmp

°C
App
Tmp
°C
Dew
Point
°C
Rel
Hum
%
Delta-T

°C
Wind Press
QNH
hPa
Press
MSL
hPa
Rain
since
9 am
mm
Dir
 
Spd
km/h
Gust
km/h
Spd
kts
Gust
kts
26/11:00pm 17.4 16.2 16.1 92 0.8 SE 17 24 9 13 1014.7 - 2.9
26/10:45pm 17.4 16.6 16.1 92 0.8 SE 15 24 8 13 1014.9 - 2.9
26/10:30pm 17.4 15.6 16.1 92 0.8 SE 20 28 11 15 1014.8 - 2.9
26/10:15pm 17.3 15.5 16.0 92 0.8 SE 20 28 11 15 1014.8 - 2.9
26/10:00pm 17.3 16.5 16.0 92 0.8 SE 15 26 8 14 1015.3 - 2.9
26/09:45pm 17.1 17.4 15.9 93 0.7 SE 9 20 5 11 1015.2 - 2.7
26/09:30pm 17.0 17.7 15.7 92 0.8 ESE 6 9 3 5 1015.1 - 2.5
26/09:15pm 16.9 17.0 15.6 92 0.8 SSE 9 17 5 9 1014.9 - 1.4
26/09:00pm 16.9 16.2 15.5 91 0.8 SSE 13 17 7 9 1014.7 - 0.7
26/08:45pm 16.8 16.1 15.4 91 0.8 SSE 13 19 7 10 1014.6 - 0.7
26/08:30pm 16.8 15.3 15.4 91 0.8 SSE 17 20 9 11 1014.5 - 0.7
26/08:15pm 16.9 16.2 15.4 91 0.9 SSE 13 19 7 10 1014.4 - 0.5
26/08:00pm 16.9 15.1 15.5 91 0.8 SSE 19 26 10 14 1014.3 - 0.5
26/07:45pm 16.9 15.9 15.5 91 0.8 SSE 15 24 8 13 1014.3 - 0.4
26/07:30pm 16.8 15.7 15.3 91 0.9 SSE 15 22 8 12 1014.1 - 0.4
26/07:15pm 16.6 15.8 15.1 91 0.9 SSE 13 17 7 9 1014.0 - 0.2
26/07:00pm 16.6 15.4 15.0 90 0.9 S 15 24 8 13 1013.8 - 0.0
26/06:45pm 16.7 15.9 15.0 90 1.0 S 13 22 7 12 1013.8 - 0.0
26/06:30pm 16.9 15.7 15.1 89 1.1 SSE 15 26 8 14 1013.5 - 0.0
26/06:15pm 17.0 15.1 15.3 90 1.0 SSE 19 24 10 13 1013.4 - 0.0
26/06:00pm 17.1 16.0 15.2 88 1.1 SSE 15 24 8 13 1013.5 - 0.0
26/05:45pm 17.1 15.2 15.1 88 1.2 SSE 19 28 10 15 1013.5 - 0.0
26/05:30pm 17.4 15.9 15.4 88 1.2 SSE 17 30 9 16 1013.5 - 0.0
26/05:15pm 17.2 15.3 15.2 88 1.2 SSE 19 28 10 15 1013.5 - 0.0
26/05:00pm 17.1 15.1 15.0 87 1.2 SSE 19 26 10 14 1013.7 - 0.0
26/04:45pm 17.1 15.1 15.0 87 1.2 SSE 19 28 10 15 1013.8 - 0.0
26/04:30pm 17.1 15.8 14.8 86 1.3 S 15 24 8 13 1013.9 - 0.0
26/04:15pm 17.5 16.3 15.1 86 1.4 S 15 22 8 12 1013.8 - 0.0
26/04:00pm 17.6 15.7 15.1 85 1.5 SSE 19 30 10 16 1013.6 - 0.0
26/03:45pm 17.5 15.3 14.8 84 1.6 SSE 20 30 11 16 1013.6 - 0.0
26/03:30pm 17.8 15.2 14.9 83 1.7 SSE 22 37 12 20 1013.5 - 0.0
26/03:15pm 18.1 16.0 15.2 83 1.7 SSE 20 33 11 18 1013.5 - 0.0
26/03:00pm 18.0 15.9 15.2 84 1.6 S 20 33 11 18 1013.5 - 0.0
26/02:45pm 18.2 16.2 15.6 85 1.5 SSE 20 33 11 18 1013.5 - 0.0
26/02:30pm 18.0 16.1 15.7 86 1.4 SSE 20 30 11 16 1013.6 - 0.0
26/02:15pm 17.8 16.5 15.7 87 1.2 SSE 17 26 9 14 1013.7 - 0.0
26/02:00pm 17.4 15.5 15.2 87 1.3 SSE 19 32 10 17 1013.8 - 0.0
26/01:45pm 17.4 15.8 14.9 85 1.5 SSE 17 26 9 14 1013.8 - 0.0
26/01:30pm 17.8 15.8 14.9 83 1.7 SSE 19 33 10 18 1013.9 - 0.0
26/01:15pm 18.2 16.9 14.8 80 2.0 SSE 15 22 8 12 1013.9 - 0.0
26/01:00pm 18.6 16.9 14.7 78 2.3 SSE 17 28 9 15 1013.9 - 0.0
26/12:45pm 19.0 17.8 15.0 77 2.4 SSE 15 28 8 15 1013.9 - 0.0
26/12:30pm 19.0 17.0 15.0 77 2.4 SSE 19 32 10 17 1013.8 - 0.0
26/12:15pm 19.1 17.5 15.0 77 2.4 SSE 17 30 9 16 1013.7 - 0.0
26/12:00pm 18.9 16.2 14.7 76 2.5 SSE 22 33 12 18 1013.9 - 0.0
26/11:45am 19.2 16.2 14.8 75 2.6 SSE 24 37 13 20 1013.8 - 0.0
26/11:30am 19.3 16.7 14.9 75 2.6 SSE 22 37 12 20 1013.7 - 0.0
26/11:15am 19.3 16.3 14.8 75 2.6 SSE 24 44 13 24 1013.6 - 0.0
26/11:00am 19.5 16.9 14.9 75 2.7 SSE 22 37 12 20 1013.6 - 0.0
26/10:45am 19.7 17.2 15.1 75 2.7 SSE 22 33 12 18 1013.5 - 0.0
26/10:30am 19.6 17.7 15.2 76 2.6 SSE 19 28 10 15 1013.5 - 0.0
26/10:15am 19.3 16.7 15.0 76 2.5 SSE 22 33 12 18 1013.5 - 0.0
26/10:00am 19.1 15.8 15.0 77 2.4 SSE 26 39 14 21 1013.5 - 0.0
26/09:45am 19.0 16.1 15.0 77 2.4 SSE 24 33 13 18 1013.4 - 0.0
26/09:30am 18.9 16.3 15.0 78 2.3 SSE 22 35 12 19 1013.2 - 0.0
26/09:15am 19.0 16.4 15.0 77 2.4 SSE 22 35 12 19 1013.1 - 0.0
26/09:00am 19.1 16.6 15.1 77 2.4 SSE 22 37 12 20 1013.0 - 0.0
26/08:45am 19.1 17.2 15.1 77 2.4 SSE 19 28 10 15 1012.8 - 0.0
26/08:30am 19.1 17.0 15.1 77 2.4 SSE 20 32 11 17 1012.6 - 0.0
26/08:15am 19.1 17.0 15.1 77 2.4 SSE 20 33 11 18 1012.6 - 0.0
26/08:00am 19.1 17.2 15.1 77 2.4 SSE 19 32 10 17 1012.3 - 0.0
26/07:45am 19.1 17.0 15.2 78 2.3 SSE 20 32 11 17 1012.2 - 0.0
26/07:30am 19.1 16.6 15.2 78 2.3 SSE 22 32 12 17 1012.0 - 0.0
26/07:15am 19.0 17.1 15.2 78 2.2 SSE 19 28 10 15 1011.9 - 0.0
26/07:00am 18.9 16.8 15.2 79 2.2 SSE 20 30 11 16 1011.8 - 0.0
26/06:45am 18.7 16.2 15.2 80 2.1 SSE 22 35 12 19 1011.3 - 0.0
26/06:30am 18.7 16.2 15.2 80 2.1 SSE 22 33 12 18 1011.3 - 0.0
26/06:15am 18.7 16.2 15.2 80 2.1 SSE 22 37 12 20 1011.1 - 0.0
26/06:00am 18.8 16.7 15.2 79 2.1 SSE 20 32 11 17 1011.1 - 0.0
26/05:45am 18.8 16.3 15.2 79 2.1 SSE 22 35 12 19 1010.8 - 0.0
26/05:30am 18.8 16.7 15.3 80 2.1 SSE 20 33 11 18 1010.6 - 0.0
26/05:15am 18.9 16.5 15.4 80 2.1 SSE 22 33 12 18 1010.7 - 0.0
26/05:00am 18.8 16.4 15.4 80 2.0 SSE 22 39 12 21 1010.6 - 0.0
26/04:45am 18.8 16.4 15.5 81 2.0 SSE 22 33 12 18 1010.6 - 0.0
26/04:30am 18.9 16.9 15.5 80 2.0 SSE 20 30 11 16 1010.6 - 0.0
26/04:15am 19.0 17.0 15.6 80 2.0 S 20 35 11 19 1010.6 - 0.0
26/04:00am 19.1 17.4 15.8 81 2.0 S 19 32 10 17 1010.7 - 0.0
26/03:45am 19.1 17.8 15.8 81 2.0 S 17 28 9 15 1010.6 - 0.0
26/03:30am 19.1 17.8 15.9 82 1.9 S 17 28 9 15 1010.6 - 0.0
26/03:15am 19.1 17.5 16.0 82 1.9 S 19 28 10 15 1010.5 - 0.0
26/03:00am 19.2 18.0 16.0 82 1.9 S 17 24 9 13 1010.4 - 0.0
26/02:45am 19.5 17.7 16.1 81 2.0 S 20 28 11 15 1010.4 - 0.0
26/02:30am 19.7 18.6 16.3 81 2.1 S 17 28 9 15 1010.4 - 0.0
26/02:15am 19.8 19.9 16.5 81 2.0 S 11 19 6 10 1010.5 - 0.0
26/02:00am 19.8 19.5 16.5 81 2.0 S 13 20 7 11 1010.5 - 0.0
26/01:45am 19.7 19.4 16.5 82 1.9 S 13 24 7 13 1010.4 - 0.0
26/01:30am 19.6 19.3 16.4 82 1.9 S 13 24 7 13 1010.4 - 0.0
26/01:15am 19.6 18.9 16.3 81 2.0 S 15 22 8 12 1010.3 - 0.0
26/01:00am 19.7 19.8 16.6 82 1.9 S 11 24 6 13 1010.3 - 0.0
26/12:45am 19.8 18.8 16.5 81 2.0 S 17 24 9 13 1010.2 - 0.0
26/12:30am 19.9 18.3 16.6 81 2.0 SSE 20 30 11 16 1010.1 - 0.0
26/12:15am 20.0 18.7 16.7 81 2.0 SSE 19 28 10 15 1010.1 - 0.0
26/12:00am 20.0 18.5 16.7 81 2.0 SSE 20 32 11 17 1009.9 - 0.0
 
Date/Time
EDT
Tmp

°C
App
Tmp
°C
Dew
Point
°C
Rel
Hum
%
Delta-T

°C
Wind Press
QNH
hPa
Press
MSL
hPa
Rain
since
9 am
mm
Dir
 
Spd
km/h
Gust
km/h
Spd
kts
Gust
kts
25/11:45pm 20.1 17.1 16.8 81 2.0 SSE 28 39 15 21 1009.6 - 0.0
25/11:30pm 20.2 18.4 17.0 82 2.0 SSE 22 35 12 19 1009.6 - 0.0
25/11:15pm 20.2 17.7 17.0 82 2.0 SSE 26 44 14 24 1009.3 - 0.0
25/11:00pm 20.3 16.7 17.2 82 1.9 SSE 32 46 17 25 1009.1 - 0.0
25/10:45pm 20.3 17.5 17.3 83 1.8 SSE 28 39 15 21 1009.2 - 0.0
25/10:30pm 20.4 17.6 17.4 83 1.8 SSE 28 41 15 22 1008.9 - 0.0
25/10:15pm 20.6 17.2 17.6 83 1.9 SSE 32 52 17 28 1008.6 - 0.0
25/10:00pm 20.7 17.6 17.6 82 1.9 SSE 30 48 16 26 1008.5 - 0.0
25/09:45pm 20.8 17.4 17.6 82 2.0 SSE 32 56 17 30 1008.1 - 0.0
25/09:30pm 20.9 16.5 17.6 81 2.0 SSE 37 56 20 30 1007.7 - 0.0
25/09:15pm 20.9 17.8 17.6 81 2.0 SSE 30 46 16 25 1007.4 - 0.0
25/09:00pm 21.0 16.7 17.7 81 2.0 SSE 37 57 20 31 1007.1 - 0.0
25/08:45pm 21.1 17.1 17.7 81 2.1 SSE 35 52 19 28 1006.8 - 0.0
25/08:30pm 21.2 16.5 17.7 80 2.2 SSE 39 56 21 30 1006.5 - 0.0
25/08:15pm 21.3 17.0 17.7 80 2.2 SSE 37 57 20 31 1006.2 - 0.0
25/08:00pm 21.6 17.3 17.7 78 2.4 SSE 37 61 20 33 1005.8 - 0.0
25/07:45pm 22.0 17.7 17.8 77 2.6 SSE 37 54 20 29 1005.7 - 0.0
25/07:30pm 22.7 19.8 18.0 75 2.9 SSE 30 50 16 27 1005.4 - 0.0
25/07:15pm 23.3 20.6 18.4 74 3.1 SSE 30 52 16 28 1005.0 - 0.0
25/07:00pm 24.3 20.5 18.2 68 3.9 SSE 35 52 19 28 1004.5 - 0.0
25/06:45pm 28.5 24.1 16.6 48 7.5 SSE 35 56 19 30 1003.8 - 0.0
25/06:30pm 33.8 30.0 11.2 25 13.3 SSW 22 32 12 17 1002.8 - 0.0
25/06:15pm 33.9 30.5 11.3 25 13.3 SW 20 32 11 17 1002.6 - 0.0
25/06:00pm 34.2 31.0 11.8 25 13.3 SW 20 30 11 16 1002.3 - 0.0
25/05:45pm 34.6 32.2 12.5 26 13.3 WSW 17 32 9 17 1002.1 - 0.0
25/05:30pm 34.4 31.8 12.0 25 13.4 WSW 17 32 9 17 1002.0 - 0.0
25/05:15pm 34.6 31.1 12.2 25 13.4 SW 22 33 12 18 1001.9 - 0.0
25/05:00pm 34.7 31.9 12.5 26 13.4 WSW 19 33 10 18 1001.8 - 0.0
25/04:45pm 34.8 31.9 12.8 26 13.3 W 20 28 11 15 1001.7 - 0.0
25/04:30pm 34.9 31.3 13.2 27 13.2 W 24 43 13 23 1001.7 - 0.0
25/04:15pm 34.9 31.2 14.0 28 12.9 WSW 26 43 14 23 1001.6 - 0.0
25/04:00pm 35.2 32.5 14.5 29 12.9 WSW 22 35 12 19 1001.5 - 0.0
25/03:45pm 34.9 31.7 15.4 31 12.3 WSW 26 39 14 21 1001.5 - 0.0
25/03:30pm 34.6 31.9 16.5 34 11.6 WSW 26 41 14 22 1001.6 - 0.0
25/03:15pm 34.3 33.0 17.3 36 11.0 WSW 20 35 11 19 1001.5 - 0.0
25/03:00pm 34.2 33.2 17.9 38 10.6 WSW 20 33 11 18 1001.5 - 0.0
25/02:45pm 34.0 33.2 18.5 40 10.2 W 20 32 11 17 1001.3 - 0.0
25/02:30pm 33.8 33.3 18.6 40 10.0 WSW 19 33 10 18 1001.4 - 0.0
25/02:15pm 33.3 33.2 18.7 42 9.6 W 17 33 9 18 1001.4 - 0.0
25/02:00pm 33.0 32.8 18.4 42 9.5 W 17 30 9 16 1001.5 - 0.0
25/01:45pm 33.0 32.5 18.7 42 9.4 WSW 19 28 10 15 1001.6 - 0.0
25/01:30pm 33.0 32.2 18.5 42 9.5 W 20 33 11 18 1001.6 - 0.0
25/01:15pm 32.9 32.5 18.8 43 9.2 WSW 19 32 10 17 1001.7 - 0.0
25/01:00pm 32.5 33.0 19.2 45 8.8 W 15 24 8 13 1001.7 - 0.0
25/12:45pm 32.1 32.8 19.7 48 8.2 W 15 32 8 17 1001.9 - 0.0
25/12:30pm 31.6 32.6 19.5 48 8.0 W 13 28 7 15 1002.1 - 0.0
25/12:15pm 31.4 32.0 19.5 49 7.8 W 15 24 8 13 1002.2 - 0.0
25/12:00pm 30.7 31.9 19.8 52 7.2 W 13 24 7 13 1002.4 - 0.0
25/11:45am 30.1 31.3 20.0 54 6.7 W 13 28 7 15 1002.6 - 0.0
25/11:30am 29.4 30.7 20.1 57 6.1 W 13 24 7 13 1002.6 - 0.0
25/11:15am 28.8 30.0 20.0 59 5.8 W 13 19 7 10 1002.7 - 0.0
25/11:00am 28.3 29.5 19.9 60 5.5 W 13 22 7 12 1002.7 - 0.0
25/10:45am 27.7 28.7 19.5 61 5.3 W 13 20 7 11 1002.9 - 0.0
25/10:30am 27.5 29.0 19.8 63 5.0 W 11 19 6 10 1002.8 - 0.0
25/10:15am 26.8 28.2 19.6 64 4.7 W 11 17 6 9 1002.8 - 0.0
25/10:00am 26.3 28.4 20.1 68 4.1 WNW 9 15 5 8 1002.8 - 0.0
25/09:45am 25.5 27.4 19.8 70 3.7 WNW 9 13 5 7 1002.7 - 0.0
25/09:30am 25.1 27.4 19.9 73 3.4 NW 7 13 4 7 1002.8 - 0.0
25/09:15am 24.3 26.3 20.0 77 2.8 NW 9 13 5 7 1002.9 - 0.0
25/09:00am 23.5 25.4 19.8 80 2.4 NW 9 15 5 8 1003.1 - 0.5
25/08:45am 23.1 25.1 20.0 83 2.0 NW 9 13 5 7 1003.1 - 0.5
25/08:30am 22.0 24.2 19.7 87 1.5 NW 7 13 4 7 1003.1 - 0.5
25/08:15am 21.0 22.5 18.9 88 1.3 NNW 9 13 5 7 1003.1 - 0.5
25/08:00am 20.7 22.0 18.5 87 1.4 NW 9 13 5 7 1003.0 - 0.5
25/07:45am 20.2 21.3 17.9 87 1.4 NW 9 13 5 7 1002.8 - 0.5
25/07:30am 20.1 21.4 17.5 85 1.6 NW 7 11 4 6 1002.7 - 0.4
25/07:15am 20.9 22.5 17.8 82 1.9 W 6 9 3 5 1002.6 - 0.4
25/07:00am 21.3 22.7 17.9 81 2.1 W 7 11 4 6 1002.4 - 0.4
25/06:45am 21.5 22.3 18.2 81 2.1 W 11 13 6 7 1002.2 - 0.4
25/06:30am 21.3 21.6 18.0 81 2.1 W 13 15 7 8 1002.0 - 0.4
25/06:15am 21.7 21.9 18.5 82 2.0 W 15 19 8 10 1001.8 - 0.4
25/06:00am 21.4 21.4 18.9 86 1.6 W 17 19 9 10 1001.7 - 0.4
25/05:45am 20.8 21.4 18.6 87 1.4 W 13 17 7 9 1001.8 - 0.4
25/05:30am 20.9 21.9 18.7 87 1.4 W 11 17 6 9 1001.8 - 0.4
25/05:15am 20.8 21.1 18.8 88 1.3 W 15 19 8 10 1001.7 - 0.4
25/05:00am 20.6 20.9 18.7 89 1.2 W 15 19 8 10 1001.7 - 0.4
25/04:45am 20.2 20.7 18.4 89 1.1 WSW 13 17 7 9 1001.8 - 0.4
25/04:30am 20.1 21.4 18.4 90 1.1 W 9 13 5 7 1001.9 - 0.4
25/04:15am 19.8 21.0 18.2 90 1.0 W 9 13 5 7 1002.0 - 0.4
25/04:00am 19.8 21.0 18.2 90 1.0 W 9 11 5 6 1002.0 - 0.4
25/03:45am 20.0 21.3 18.4 90 1.0 W 9 15 5 8 1002.2 - 0.4
25/03:30am 20.0 20.1 18.4 90 1.0 W 15 19 8 10 1002.4 - 0.4
25/03:15am 20.0 20.5 18.4 90 1.0 W 13 19 7 10 1002.6 - 0.4
25/03:00am 20.2 21.6 18.6 90 1.0 W 9 17 5 9 1002.8 - 0.4
25/02:45am 20.1 21.0 18.5 90 1.0 W 11 15 6 8 1003.2 - 0.4
25/02:30am 20.2 20.8 18.6 90 1.0 W 13 17 7 9 1003.5 - 0.4
25/02:15am 20.3 21.3 18.7 90 1.0 W 11 17 6 9 1003.8 - 0.4
25/02:00am 20.4 21.1 18.8 90 1.0 W 13 17 7 9 1003.9 - 0.4
25/01:45am 20.6 21.4 19.0 90 1.0 W 13 19 7 10 1004.2 - 0.4
25/01:30am 20.4 22.2 18.8 90 1.0 W 7 17 4 9 1004.4 - 0.4
25/01:15am 20.3 22.0 18.6 90 1.1 W 7 13 4 7 1004.8 - 0.4
25/01:00am 20.5 22.0 18.9 90 1.0 W 9 13 5 7 1004.9 - 0.4
25/12:45am 20.7 21.9 19.0 90 1.1 W 11 19 6 10 1005.0 - 0.4
25/12:30am 21.0 21.1 19.2 89 1.1 W 17 22 9 12 1005.1 - 0.4
25/12:15am 21.4 22.4 19.5 89 1.2 WNW 13 20 7 11 1005.2 - 0.4
25/12:00am 21.8 22.1 19.7 88 1.3 NW 17 22 9 12 1005.1 - 0.4
 
Date/Time
EDT
Tmp

°C
App
Tmp
°C
Dew
Point
°C
Rel
Hum
%
Delta-T

°C
Wind Press
QNH
hPa
Press
MSL
hPa
Rain
since
9 am
mm
Dir
 
Spd
km/h
Gust
km/h
Spd
kts
Gust
kts
24/11:45pm 22.3 23.6 20.2 88 1.4 NE 13 22 7 12 1004.7 - 0.4
24/11:30pm 22.2 22.7 20.0 87 1.4 ESE 17 20 9 11 1004.7 - 0.4
24/11:15pm 22.0 22.7 19.6 86 1.5 ESE 15 20 8 11 1005.3 - 0.4
24/11:00pm 22.1 23.4 19.3 84 1.8 SE 11 15 6 8 1006.0 - 0.2
24/10:45pm 22.5 23.7 19.1 81 2.2 SSE 11 17 6 9 1006.3 - 0.0
24/10:30pm 22.7 23.4 18.9 79 2.4 SSW 13 19 7 10 1006.4 - 0.0
24/10:15pm 23.3 23.5 19.3 78 2.6 SW 17 22 9 12 1006.6 - 0.0
24/10:00pm 24.1 24.1 19.7 76 2.8 W 19 35 10 19 1006.8 - 0.0
24/09:45pm 24.3 26.2 19.8 76 2.9 NNW 9 13 5 7 1006.4 - 0.0
24/09:30pm 24.3 26.6 19.8 76 2.9 NNE 7 13 4 7 1006.1 - 0.0
24/09:15pm 24.4 26.7 19.9 76 2.9 NNE 7 9 4 5 1006.1 - 0.0
24/09:00pm 24.6 27.1 19.9 75 3.1 NE 6 9 3 5 1005.8 - 0.0
24/08:45pm 24.5 26.8 19.8 75 3.0 NE 7 13 4 7 1005.3 - 0.0
24/08:30pm 24.6 26.1 19.7 74 3.2 NNE 11 17 6 9 1005.3 - 0.0
24/08:15pm 24.7 26.2 19.8 74 3.2 N 11 19 6 10 1005.4 - 0.0
24/08:00pm 24.8 26.7 19.8 74 3.2 NNE 9 19 5 10 1005.2 - 0.0
24/07:45pm 24.8 25.9 19.7 73 3.3 NE 13 19 7 10 1004.9 - 0.0
24/07:30pm 24.9 26.3 19.6 72 3.4 NE 11 22 6 12 1004.7 - 0.0
24/07:15pm 25.1 25.8 19.6 71 3.6 NE 15 24 8 13 1004.6 - 0.0
24/07:00pm 25.1 25.2 19.2 70 3.8 NE 17 28 9 15 1004.4 - 0.0
24/06:45pm 25.5 25.0 19.0 67 4.2 NE 20 30 11 16 1003.9 - 0.0
24/06:30pm 25.8 25.2 18.9 65 4.4 ENE 20 32 11 17 1003.8 - 0.0
24/06:15pm 26.0 25.3 18.3 62 4.9 NE 19 28 10 15 1004.0 - 0.0
24/06:00pm 26.2 25.4 18.4 62 5.0 NE 20 37 11 20 1003.8 - 0.0
24/05:45pm 26.3 25.1 18.5 62 5.0 NE 22 32 12 17 1003.5 - 0.0
24/05:30pm 26.6 26.0 18.4 60 5.2 NE 19 30 10 16 1003.6 - 0.0
24/05:15pm 26.7 25.5 18.3 60 5.4 NE 22 32 12 17 1003.5 - 0.0
24/05:00pm 27.0 26.1 18.1 58 5.7 NE 20 32 11 17 1003.7 - 0.0
24/04:45pm 27.4 26.0 18.0 56 6.0 NE 22 32 12 17 1003.8 - 0.0
24/04:30pm 28.2 26.5 18.1 54 6.5 NE 24 32 13 17 1004.1 - 0.0
24/04:15pm 29.4 28.7 18.7 52 6.9 NE 20 33 11 18 1004.3 - 0.0
24/04:00pm 30.0 29.5 19.1 52 7.1 ENE 20 28 11 15 1004.2 - 0.0
24/03:45pm 30.3 30.2 19.6 52 7.0 ENE 19 30 10 16 1004.3 - 0.0
24/03:30pm 30.2 29.5 19.5 52 7.0 ENE 22 32 12 17 1004.5 - 0.0
24/03:15pm 30.4 29.8 19.7 52 7.1 ENE 22 33 12 18 1004.4 - 0.0
24/03:00pm 30.1 29.5 19.7 53 6.8 NE 22 32 12 17 1004.5 - 0.0
24/02:45pm 30.2 30.0 19.8 53 6.9 NE 20 32 11 17 1004.8 - 0.0
24/02:30pm 30.1 30.1 19.7 53 6.8 NE 19 28 10 15 1005.2 - 0.0
24/02:15pm 30.4 30.3 19.9 53 6.9 ENE 20 28 11 15 1005.4 - 0.0
24/02:00pm 30.5 30.6 20.0 53 7.0 NE 19 26 10 14 1005.6 - 0.0
24/01:45pm 30.5 30.5 20.2 54 6.8 ENE 20 28 11 15 1005.8 - 0.0
24/01:30pm 30.6 30.8 20.5 54 6.7 ENE 20 30 11 16 1005.9 - 0.0
24/01:15pm 30.2 30.7 20.8 57 6.3 NE 19 28 10 15 1006.0 - 0.0
24/01:00pm 30.1 30.7 21.0 58 6.1 ENE 19 26 10 14 1006.2 - 0.0
24/12:45pm 30.0 31.4 21.1 59 6.0 ENE 15 24 8 13 1006.4 - 0.0
24/12:30pm 29.5 31.9 21.6 62 5.3 NE 11 19 6 10 1006.6 - 0.0
24/12:15pm 28.8 31.4 21.2 63 5.1 NNE 9 17 5 9 1006.9 - 0.0
24/12:00pm 28.4 31.0 21.2 65 4.8 NNE 9 17 5 9 1007.0 - 0.0
24/11:45am 28.9 32.0 21.5 64 5.0 NE 7 17 4 9 1007.2 - 0.0
24/11:30am 28.2 31.3 21.5 67 4.5 NNE 7 17 4 9 1007.3 - 0.0
24/11:15am 28.0 30.3 21.4 67 4.4 NNE 11 22 6 12 1007.3 - 0.0
24/11:00am 27.8 30.6 21.6 69 4.2 NNE 9 17 5 9 1007.5 - 0.0
24/10:45am 27.1 30.5 21.6 72 3.7 N 6 13 3 7 1007.6 - 0.0
24/10:30am 26.5 29.5 21.3 73 3.5 - 7 13 4 7 1007.8 - 0.0
24/10:15am 26.4 28.9 21.1 72 3.5 NNE 9 13 5 7 1007.9 - 0.0
24/10:00am 26.1 28.6 21.0 73 3.4 NNE 9 13 5 7 1007.9 - 0.0
24/09:45am 26.1 28.8 21.4 75 3.1 NE 9 13 5 7 1008.0 - 0.0
24/09:30am 25.1 28.1 21.2 79 2.6 NNE 7 9 4 5 1008.0 - 0.0
24/09:15am 24.6 27.3 20.7 79 2.6 NNE 7 9 4 5 1008.0 - 0.0
24/09:00am 25.0 28.1 21.0 78 2.6 N 6 9 3 5 1008.0 - 0.0
24/08:45am 24.7 28.2 21.1 80 2.4 NNE 4 9 2 5 1008.0 - 0.0
24/08:30am 24.2 27.6 20.9 82 2.2 NNE 4 7 2 4 1007.9 - 0.0
24/08:15am 24.0 27.4 21.0 83 2.0 NE 4 6 2 3 1007.9 - 0.0
24/08:00am 23.7 27.6 21.2 86 1.7 ENE 2 4 1 2 1007.9 - 0.0
24/07:45am 23.1 27.0 21.1 88 1.3 ENE 2 6 1 3 1007.8 - 0.0
24/07:30am 22.3 25.9 20.6 90 1.1 ESE 2 4 1 2 1007.7 - 0.0
24/07:15am 21.9 25.4 20.3 91 1.0 SE 2 4 1 2 1007.6 - 0.0
24/07:00am 21.4 24.6 19.8 91 1.0 S 2 4 1 2 1007.7 - 0.0
24/06:45am 21.1 24.6 19.5 90 1.0 CALM 0 4 0 2 1007.5 - 0.0
24/06:30am 21.0 23.6 19.3 90 1.1 ENE 4 7 2 4 1007.2 - 0.0
24/06:15am 21.1 23.2 19.4 90 1.1 NE 7 9 4 5 1007.0 - 0.0
24/06:00am 21.2 23.4 19.5 90 1.1 ENE 7 9 4 5 1007.1 - 0.0
24/05:45am 21.2 23.0 19.5 90 1.1 NE 9 11 5 6 1007.0 - 0.0
24/05:30am 21.3 23.1 19.5 89 1.2 ENE 9 9 5 5 1006.8 - 0.0
24/05:15am 21.3 23.1 19.5 89 1.2 ENE 9 13 5 7 1006.7 - 0.0
24/05:00am 21.4 23.2 19.5 89 1.2 ENE 9 13 5 7 1006.6 - 0.0
24/04:45am 21.5 22.9 19.6 89 1.2 ENE 11 13 6 7 1006.5 - 0.0
24/04:30am 21.6 23.4 19.6 88 1.3 ENE 9 13 5 7 1006.4 - 0.0
24/04:15am 21.8 24.1 19.8 88 1.3 ENE 7 9 4 5 1006.4 - 0.0
24/04:00am 21.8 24.3 19.8 88 1.3 ENE 6 7 3 4 1006.4 - 0.0
24/03:45am 21.7 24.1 19.7 88 1.3 ENE 6 7 3 4 1006.5 - 0.0
24/03:30am 21.9 24.3 19.7 87 1.4 ENE 6 7 3 4 1006.5 - 0.0
24/03:15am 21.9 24.1 19.7 87 1.4 NE 7 9 4 5 1006.5 - 0.0
24/03:00am 22.1 24.4 19.8 87 1.5 NE 7 9 4 5 1006.6 - 0.0
24/02:45am 22.2 24.7 19.8 86 1.5 ENE 6 9 3 5 1006.6 - 0.0
24/02:30am 22.4 24.4 19.9 86 1.6 NE 9 15 5 8 1006.5 - 0.0
24/02:15am 22.5 24.1 20.0 86 1.6 NE 11 13 6 7 1006.7 - 0.0
24/02:00am 22.6 24.2 20.0 85 1.7 NE 11 15 6 8 1006.8 - 0.0
24/01:45am 22.8 24.4 20.0 84 1.8 ENE 11 13 6 7 1007.0 - 0.0
24/01:30am 22.8 24.8 20.0 84 1.8 ENE 9 13 5 7 1007.0 - 0.0
24/01:15am 22.8 24.3 19.8 83 1.9 ENE 11 13 6 7 1006.9 - 0.0
24/01:00am 23.1 25.2 20.1 83 1.9 NE 9 13 5 7 1007.0 - 0.0
24/12:45am 23.3 25.4 20.2 83 2.0 NE 9 13 5 7 1007.1 - 0.0
24/12:30am 23.4 25.9 20.2 82 2.1 NE 7 13 4 7 1007.1 - 0.0
24/12:15am 23.5 26.0 20.3 82 2.1 NE 7 13 4 7 1007.2 - 0.0
24/12:00am 23.6 25.8 20.3 82 2.2 NE 9 13 5 7 1007.2 - 0.0
 
Date/Time
EDT
Tmp

°C
App
Tmp
°C
Dew
Point
°C
Rel
Hum
%
Delta-T

°C
Wind Press
QNH
hPa
Press
MSL
hPa
Rain
since
9 am
mm
Dir
 
Spd
km/h
Gust
km/h
Spd
kts
Gust
kts
23/11:45pm 23.7 26.2 20.3 81 2.2 NE 7 13 4 7 1007.4 - 0.0
23/11:30pm 23.8 26.3 20.3 81 2.3 NE 7 11 4 6 1007.5 - 0.0

Latest Capital City Observations: Canberra | Sydney | Melbourne | Brisbane | Adelaide | Perth | Hobart | Darwin

Other Formats:

Comma delimited format used in spreadsheet applications
http://www.bom.gov.au/fwo/IDN60901/IDN60901.95757.axf

JavaScript Object Notation format (JSON) in row-major order
http://www.bom.gov.au/fwo/IDN60901/IDN60901.95757.json